createdAt,value
2023-04-09T00:01:28.127Z,8.60
2023-04-09T00:03:56.273Z,9.40
2023-04-09T00:06:24.720Z,7.20
2023-04-09T00:08:53.042Z,8.90
2023-04-09T00:11:21.820Z,7.80
2023-04-09T00:13:52.376Z,8.70
2023-04-09T00:16:20.493Z,8.70
2023-04-09T00:18:48.491Z,8.60
2023-04-09T00:29:34.935Z,9.30
2023-04-09T00:32:03.530Z,9.20
2023-04-09T00:34:32.043Z,10.30
2023-04-09T00:37:00.673Z,8.10
2023-04-09T00:39:29.213Z,8.20
2023-04-09T00:41:58.720Z,8.10
2023-04-09T00:44:27.063Z,7.30
2023-04-09T00:46:55.475Z,7.40
2023-04-09T00:49:26.347Z,8.00
2023-04-09T00:51:54.399Z,9.00
2023-04-09T00:54:23.382Z,7.80
2023-04-09T00:56:51.396Z,9.00
2023-04-09T00:59:19.577Z,7.60
2023-04-09T01:01:47.769Z,8.20
2023-04-09T01:04:16.889Z,8.30
2023-04-09T01:06:56.350Z,8.20
2023-04-09T01:09:31.156Z,9.10
2023-04-09T01:12:12.315Z,8.60
2023-04-09T01:14:51.070Z,8.00
2023-04-09T01:17:26.824Z,8.70
2023-04-09T01:20:01.714Z,7.80
2023-04-09T01:22:56.474Z,8.30
2023-04-09T01:25:47.710Z,8.80
2023-04-09T01:28:20.800Z,9.00
2023-04-09T01:30:51.037Z,8.80
2023-04-09T01:33:20.541Z,9.90
2023-04-09T01:35:49.430Z,9.70
2023-04-09T01:38:18.758Z,7.90
2023-04-09T01:40:47.727Z,8.40
2023-04-09T01:43:17.327Z,8.50
2023-04-09T01:45:47.427Z,8.60
2023-04-09T01:48:16.407Z,9.40
2023-04-09T01:50:48.698Z,8.20
2023-04-09T01:53:17.907Z,7.40
2023-04-09T01:55:47.668Z,8.70
2023-04-09T01:58:19.811Z,9.00
2023-04-09T02:00:48.785Z,9.10
2023-04-09T02:03:25.757Z,9.20
2023-04-09T02:06:02.912Z,9.60
2023-04-09T02:08:31.923Z,12.20
2023-04-09T02:11:00.342Z,9.10
2023-04-09T02:13:28.536Z,10.20
2023-04-09T02:16:00.324Z,8.50
2023-04-09T02:18:31.308Z,8.90
2023-04-09T02:20:59.734Z,10.80
2023-04-09T02:23:29.255Z,9.90
2023-04-09T02:25:57.380Z,8.50
2023-04-09T02:28:26.474Z,9.80
2023-04-09T02:30:54.964Z,9.50
2023-04-09T02:33:22.990Z,10.10
2023-04-09T02:35:51.976Z,10.80
2023-04-09T02:38:21.334Z,9.90
2023-04-09T02:40:55.086Z,10.80
2023-04-09T02:43:24.655Z,10.70
2023-04-09T02:45:52.670Z,11.30
2023-04-09T02:48:22.171Z,10.50
2023-04-09T02:50:51.506Z,10.70
2023-04-09T02:53:21.749Z,10.30
2023-04-09T02:55:50.595Z,10.40
2023-04-09T02:58:19.081Z,12.10
2023-04-09T03:00:49.749Z,11.50
2023-04-09T03:03:18.443Z,11.40
2023-04-09T03:05:46.750Z,13.30
2023-04-09T03:08:15.032Z,10.90
2023-04-09T03:10:44.248Z,10.70
2023-04-09T03:13:13.080Z,11.20
2023-04-09T03:15:41.699Z,11.50
2023-04-09T03:18:10.060Z,12.30
2023-04-09T03:20:39.639Z,13.20
2023-04-09T03:23:11.929Z,12.70
2023-04-09T03:25:43.990Z,10.90
2023-04-09T03:28:13.912Z,11.60
2023-04-09T03:30:49.028Z,10.50
2023-04-09T03:33:17.454Z,12.00
2023-04-09T03:35:52.514Z,11.60
2023-04-09T03:38:26.885Z,10.10
2023-04-09T03:40:56.729Z,10.30
2023-04-09T03:43:27.530Z,11.30
2023-04-09T03:45:55.944Z,11.80
2023-04-09T03:48:27.538Z,9.70
2023-04-09T03:50:56.627Z,9.60
2023-04-09T03:53:35.596Z,11.50
2023-04-09T03:56:06.778Z,10.00
2023-04-09T03:58:35.318Z,10.00
2023-04-09T04:01:03.773Z,9.10
2023-04-09T04:03:36.333Z,10.80
2023-04-09T04:06:18.848Z,9.80
2023-04-09T04:09:13.095Z,11.80
2023-04-09T04:11:48.760Z,10.40
2023-04-09T04:14:17.154Z,9.90
2023-04-09T04:16:47.519Z,10.60
2023-04-09T04:19:18.099Z,12.40
2023-04-09T04:21:48.684Z,13.80
2023-04-09T04:24:17.133Z,14.80
2023-04-09T04:26:45.748Z,11.90
2023-04-09T04:29:15.692Z,13.30
2023-04-09T04:32:07.903Z,12.20
2023-04-09T04:34:38.326Z,11.80
2023-04-09T04:37:13.821Z,11.40
2023-04-09T04:39:49.155Z,12.40
2023-04-09T04:42:18.378Z,12.80
2023-04-09T04:44:46.966Z,13.00
2023-04-09T04:47:29.937Z,12.60
2023-04-09T04:50:00.210Z,10.60
2023-04-09T04:52:31.446Z,10.80
2023-04-09T04:55:02.787Z,13.30
2023-04-09T04:57:31.168Z,13.30
2023-04-09T05:00:01.149Z,13.20
2023-04-09T05:02:30.973Z,11.00
2023-04-09T05:05:34.619Z,11.30
2023-04-09T05:08:05.834Z,11.50
2023-04-09T05:10:36.807Z,12.90
2023-04-09T05:13:04.986Z,15.00
2023-04-09T05:15:40.822Z,15.40
2023-04-09T05:18:09.578Z,14.30
2023-04-09T05:20:37.883Z,16.30
2023-04-09T05:23:13.155Z,16.20
2023-04-09T05:25:45.017Z,16.40
2023-04-09T05:28:21.957Z,12.90
2023-04-09T05:30:54.392Z,15.00
2023-04-09T05:33:23.190Z,15.70
2023-04-09T05:35:52.208Z,13.30
2023-04-09T05:38:21.478Z,12.60
2023-04-09T05:40:55.651Z,12.90
2023-04-09T05:43:26.303Z,10.50
2023-04-09T05:45:56.680Z,12.40
2023-04-09T05:48:25.007Z,18.90
2023-04-09T05:50:55.643Z,12.00
2023-04-09T05:53:26.692Z,12.80
2023-04-09T05:55:54.774Z,12.20
2023-04-09T05:58:25.312Z,9.60
2023-04-09T06:00:58.065Z,10.60
2023-04-09T06:03:28.965Z,9.70
2023-04-09T06:05:57.393Z,9.00
2023-04-09T06:08:27.959Z,9.10
2023-04-09T06:10:56.959Z,9.40
2023-04-09T06:13:26.393Z,9.80
2023-04-09T06:15:54.988Z,8.60
2023-04-09T06:18:24.941Z,9.00
2023-04-09T06:21:08.535Z,8.30
2023-04-09T06:23:41.644Z,8.90
2023-04-09T06:26:11.839Z,8.50
2023-04-09T06:28:41.212Z,8.80
2023-04-09T06:31:12.414Z,10.30
2023-04-09T06:33:43.305Z,8.80
2023-04-09T06:36:12.324Z,9.00
2023-04-09T06:38:41.606Z,7.20
2023-04-09T06:41:12.762Z,7.20
2023-04-09T06:43:43.280Z,7.80
2023-04-09T06:46:11.542Z,9.00
2023-04-09T06:48:39.910Z,7.40
2023-04-09T06:51:08.707Z,7.80
2023-04-09T06:53:40.695Z,7.10
2023-04-09T06:56:10.596Z,8.10
2023-04-09T06:58:43.027Z,7.20
2023-04-09T07:01:11.149Z,7.10
2023-04-09T07:03:43.312Z,7.40
2023-04-09T07:06:12.225Z,6.70
2023-04-09T07:08:40.494Z,6.00
2023-04-09T07:11:13.015Z,6.40
2023-04-09T07:13:43.266Z,5.80
2023-04-09T07:16:11.627Z,6.20
2023-04-09T07:18:41.178Z,5.30
2023-04-09T07:21:09.758Z,6.90
2023-04-09T07:23:38.172Z,6.20
2023-04-09T07:26:06.282Z,7.00
2023-04-09T07:28:37.098Z,6.70
2023-04-09T07:31:05.534Z,6.40
2023-04-09T07:33:53.863Z,5.80
2023-04-09T07:36:24.842Z,6.80
2023-04-09T07:38:53.214Z,5.20
2023-04-09T07:41:22.689Z,6.40
2023-04-09T07:43:50.904Z,6.70
2023-04-09T07:46:22.315Z,6.30
2023-04-09T07:48:50.768Z,6.70
2023-04-09T07:51:20.510Z,5.30
2023-04-09T07:53:53.391Z,5.60
2023-04-09T07:56:22.532Z,5.30
2023-04-09T07:58:51.114Z,6.20
2023-04-09T08:01:24.715Z,5.90
2023-04-09T08:03:53.365Z,7.30
2023-04-09T08:06:23.136Z,6.40
2023-04-09T08:08:56.271Z,6.30
2023-04-09T08:11:26.089Z,6.70
2023-04-09T08:13:54.772Z,5.60
2023-04-09T08:16:28.168Z,6.00
2023-04-09T08:18:57.468Z,5.90
2023-04-09T08:21:30.073Z,6.10
2023-04-09T08:24:05.174Z,5.70
2023-04-09T08:26:33.847Z,6.80
2023-04-09T08:29:03.434Z,5.90
2023-04-09T08:31:33.996Z,5.50
2023-04-09T08:34:02.245Z,5.90
2023-04-09T08:36:32.515Z,6.80
2023-04-09T08:39:01.112Z,5.70
2023-04-09T08:41:30.228Z,6.00
2023-04-09T08:43:59.505Z,4.20
2023-04-09T08:46:28.779Z,5.70
2023-04-09T08:48:57.498Z,5.10
2023-04-09T08:51:25.952Z,5.10
2023-04-09T08:54:03.729Z,4.70
2023-04-09T08:56:33.562Z,5.00
2023-04-09T08:59:01.739Z,5.40
2023-04-09T09:01:31.036Z,5.20
2023-04-09T09:04:04.420Z,4.30
2023-04-09T09:06:38.703Z,6.40
2023-04-09T09:09:11.092Z,5.80
2023-04-09T09:11:46.892Z,5.00
2023-04-09T09:14:19.023Z,6.10
2023-04-09T09:17:04.611Z,5.50
2023-04-09T09:19:36.116Z,6.20
2023-04-09T09:22:11.077Z,5.70
2023-04-09T09:24:50.414Z,6.20
2023-04-09T09:27:33.491Z,6.20
2023-04-09T09:30:08.741Z,5.90
2023-04-09T09:32:37.346Z,5.60
2023-04-09T09:35:06.610Z,4.90
2023-04-09T09:37:34.930Z,5.30
2023-04-09T09:40:04.402Z,7.40
2023-04-09T09:42:37.580Z,7.80
2023-04-09T09:45:17.636Z,5.70
2023-04-09T09:47:48.701Z,6.80
2023-04-09T09:50:17.930Z,6.40
2023-04-09T09:52:46.200Z,6.60
2023-04-09T09:55:18.055Z,6.40
2023-04-09T09:57:48.387Z,5.50
2023-04-09T10:00:18.665Z,5.80
2023-04-09T10:02:59.642Z,6.80
2023-04-09T10:05:27.910Z,5.20
2023-04-09T10:07:58.357Z,7.70
2023-04-09T10:10:27.385Z,5.70
2023-04-09T10:12:56.371Z,5.00
2023-04-09T10:15:25.962Z,5.40
2023-04-09T10:17:56.313Z,5.70
2023-04-09T10:20:34.677Z,5.90
2023-04-09T10:23:06.353Z,7.80
2023-04-09T10:25:36.001Z,6.60
2023-04-09T10:28:12.371Z,6.20
2023-04-09T10:30:40.354Z,6.80
2023-04-09T10:33:28.125Z,6.50
2023-04-09T10:36:02.055Z,5.80
2023-04-09T10:38:41.137Z,5.60
2023-04-09T10:41:22.548Z,5.90
2023-04-09T10:43:51.023Z,4.50
2023-04-09T10:46:35.065Z,5.90
2023-04-09T10:49:13.713Z,6.00
2023-04-09T10:51:47.944Z,4.90
2023-04-09T10:54:35.201Z,5.20
2023-04-09T10:57:08.171Z,5.40
2023-04-09T10:59:49.628Z,5.80
2023-04-09T11:03:04.772Z,6.10
2023-04-09T11:06:09.587Z,6.40
2023-04-09T11:08:39.475Z,6.10
2023-04-09T11:11:07.749Z,6.30
2023-04-09T11:13:41.732Z,6.40
2023-04-09T11:16:24.098Z,5.50
2023-04-09T11:19:13.602Z,6.60
2023-04-09T11:21:49.235Z,5.30
2023-04-09T11:24:19.818Z,5.40
2023-04-09T11:26:52.106Z,6.00
2023-04-09T11:29:35.102Z,5.10
2023-04-09T11:32:05.418Z,4.80
2023-04-09T11:34:53.327Z,5.20
2023-04-09T11:37:28.952Z,5.80
2023-04-09T11:39:58.426Z,5.00
2023-04-09T11:42:31.892Z,5.20
2023-04-09T11:45:07.379Z,5.90
2023-04-09T11:47:51.270Z,4.70
2023-04-09T11:50:23.147Z,6.00
2023-04-09T11:59:20.906Z,4.90
2023-04-09T12:01:58.783Z,4.80
2023-04-09T12:04:29.432Z,5.50
2023-04-09T12:06:59.024Z,4.90
2023-04-09T12:09:28.832Z,5.50
2023-04-09T12:12:11.527Z,4.80
2023-04-09T12:14:57.268Z,5.20
2023-04-09T12:17:27.240Z,5.40
2023-04-09T12:20:15.631Z,5.50
2023-04-09T12:22:47.621Z,5.10
2023-04-09T12:25:16.017Z,4.70
2023-04-09T12:27:47.043Z,4.80
2023-04-09T12:30:17.904Z,4.90
2023-04-09T12:32:52.973Z,4.30
2023-04-09T12:35:22.827Z,5.80
2023-04-09T12:37:50.949Z,5.10
2023-04-09T12:40:20.454Z,4.60
2023-04-09T12:42:49.933Z,4.40
2023-04-09T12:45:21.259Z,5.40
2023-04-09T12:47:49.712Z,5.30
2023-04-09T12:50:23.506Z,4.90
2023-04-09T12:52:52.996Z,5.30
2023-04-09T12:55:23.404Z,5.00
2023-04-09T12:57:53.691Z,5.00
2023-04-09T13:00:24.746Z,5.60
2023-04-09T13:02:53.489Z,4.40
2023-04-09T13:05:22.963Z,4.00
2023-04-09T13:07:51.505Z,5.50
2023-04-09T13:10:20.356Z,5.50
2023-04-09T13:12:52.708Z,5.20
2023-04-09T13:15:20.997Z,4.60
2023-04-09T13:17:50.894Z,5.20
2023-04-09T13:20:22.460Z,5.30
2023-04-09T13:22:52.488Z,5.30
2023-04-09T13:25:21.399Z,5.90
2023-04-09T13:27:52.639Z,4.90
2023-04-09T13:30:24.204Z,6.20
2023-04-09T13:33:02.834Z,8.80
2023-04-09T13:35:51.353Z,6.60
2023-04-09T13:38:22.182Z,8.20
2023-04-09T13:40:51.157Z,7.30
2023-04-09T13:43:27.984Z,9.00
2023-04-09T13:45:57.423Z,8.00
2023-04-09T13:48:26.490Z,8.20
2023-04-09T13:50:55.171Z,8.70
2023-04-09T13:53:25.287Z,8.40
2023-04-09T13:55:53.688Z,9.20
2023-04-09T13:58:23.362Z,7.70
2023-04-09T14:00:54.856Z,7.60
2023-04-09T14:03:24.592Z,6.80
2023-04-09T14:05:56.601Z,5.70
2023-04-09T14:08:26.586Z,6.40
2023-04-09T14:10:57.057Z,6.40
2023-04-09T14:13:25.458Z,5.50
2023-04-09T14:15:53.850Z,5.80
2023-04-09T14:18:23.638Z,5.70
2023-04-09T14:20:57.205Z,5.60
2023-04-09T14:23:26.433Z,6.80
2023-04-09T14:25:54.933Z,5.90
2023-04-09T14:28:23.764Z,9.10
2023-04-09T14:30:59.740Z,7.50
2023-04-09T14:33:44.490Z,9.00
2023-04-09T14:36:17.716Z,8.40
2023-04-09T14:38:49.363Z,7.40
2023-04-09T14:41:20.188Z,7.00
2023-04-09T14:43:50.408Z,6.90
2023-04-09T14:46:34.196Z,8.50
2023-04-09T14:49:08.388Z,8.80
2023-04-09T14:51:41.369Z,9.00
2023-04-09T15:02:47.713Z,9.10
2023-04-09T15:05:24.374Z,10.60
2023-04-09T15:07:54.967Z,11.20
2023-04-09T15:10:26.415Z,11.00
2023-04-09T15:12:56.418Z,11.40
2023-04-09T15:15:27.720Z,9.30
2023-04-09T15:18:06.017Z,11.70
2023-04-09T15:20:39.739Z,11.50
2023-04-09T15:23:08.478Z,11.60
2023-04-09T15:25:40.854Z,11.80
2023-04-09T15:28:09.629Z,10.90
2023-04-09T15:30:39.611Z,11.70
2023-04-09T15:33:08.478Z,9.70
2023-04-09T15:35:39.863Z,11.20
2023-04-09T15:38:17.303Z,13.00
2023-04-09T15:41:01.639Z,14.60
2023-04-09T15:43:36.936Z,12.50
2023-04-09T15:46:10.861Z,11.60
2023-04-09T15:48:44.554Z,10.80
2023-04-09T15:51:33.059Z,10.00
2023-04-09T15:54:08.204Z,10.50
2023-04-09T15:56:40.530Z,11.40
2023-04-09T15:59:14.216Z,12.20
2023-04-09T16:01:43.293Z,12.50
2023-04-09T16:04:12.986Z,11.50
2023-04-09T16:07:02.483Z,11.30
2023-04-09T16:09:50.443Z,9.70
2023-04-09T16:12:25.993Z,12.70
2023-04-09T16:15:07.989Z,13.40
2023-04-09T16:17:40.838Z,12.60
2023-04-09T16:20:11.708Z,11.50
2023-04-09T16:22:45.980Z,11.50
2023-04-09T16:25:16.503Z,9.40
2023-04-09T16:27:50.703Z,8.50
2023-04-09T16:30:24.332Z,9.70
2023-04-09T16:40:43.918Z,9.50
2023-04-09T16:43:12.325Z,9.00
2023-04-09T16:45:40.591Z,8.00
2023-04-09T16:48:28.618Z,9.50
2023-04-09T16:51:03.724Z,9.80
2023-04-09T16:58:40.019Z,10.10
2023-04-09T17:01:09.586Z,13.30
2023-04-09T17:03:50.440Z,7.90
2023-04-09T17:06:19.004Z,11.40
2023-04-09T17:08:47.991Z,9.50
2023-04-09T17:11:17.222Z,10.50
2023-04-09T17:13:52.391Z,8.80
2023-04-09T17:16:25.003Z,9.80
2023-04-09T17:18:53.714Z,10.30
2023-04-09T17:21:27.971Z,8.80
2023-04-09T17:24:04.405Z,7.60
2023-04-09T17:26:34.223Z,9.60
2023-04-09T17:29:03.152Z,9.80
2023-04-09T17:31:31.710Z,11.70
2023-04-09T17:42:36.425Z,9.40
2023-04-09T17:45:05.820Z,8.70
2023-04-09T17:47:41.298Z,11.60
2023-04-09T17:50:09.680Z,12.40
2023-04-09T17:52:46.571Z,12.20
2023-04-09T17:55:15.147Z,13.40
2023-04-09T18:00:17.342Z,13.40
2023-04-09T18:02:53.178Z,14.20
2023-04-09T18:05:23.078Z,10.80
2023-04-09T18:07:54.952Z,11.60
2023-04-09T18:10:24.951Z,14.40
2023-04-09T18:13:03.741Z,13.00
2023-04-09T18:15:32.797Z,12.40
2023-04-09T18:18:02.657Z,10.50
2023-04-09T18:20:32.262Z,11.20
2023-04-09T18:23:01.652Z,8.30
2023-04-09T18:25:31.534Z,11.00
2023-04-09T18:28:00.850Z,9.60
2023-04-09T18:30:31.487Z,10.30
2023-04-09T18:33:00.967Z,11.90
2023-04-09T18:35:31.831Z,11.70
2023-04-09T18:38:08.496Z,11.70
2023-04-09T18:40:46.364Z,12.70
2023-04-09T18:43:14.491Z,12.60
2023-04-09T18:45:43.580Z,12.30
2023-04-09T18:48:13.396Z,10.20
2023-04-09T18:50:48.746Z,11.10
2023-04-09T18:53:20.807Z,10.70
2023-04-09T18:55:49.162Z,11.70
2023-04-09T18:58:17.767Z,11.30
2023-04-09T19:00:46.343Z,10.70
2023-04-09T19:03:16.465Z,11.50
2023-04-09T19:05:45.459Z,10.00
2023-04-09T19:08:13.949Z,9.30
2023-04-09T19:10:42.424Z,9.40
2023-04-09T19:13:12.945Z,10.00
2023-04-09T19:15:41.278Z,8.40
2023-04-09T19:18:09.463Z,8.20
2023-04-09T19:20:38.065Z,8.70
2023-04-09T19:23:06.734Z,8.10
2023-04-09T19:25:36.958Z,8.10
2023-04-09T19:28:05.873Z,8.00
2023-04-09T19:30:33.985Z,6.10
2023-04-09T19:33:09.628Z,7.90
2023-04-09T19:35:41.064Z,6.60
2023-04-09T19:38:18.179Z,7.50
2023-04-09T19:40:46.793Z,7.40
2023-04-09T19:43:15.828Z,7.40
2023-04-09T19:45:44.641Z,7.30
2023-04-09T19:48:14.085Z,10.40
2023-04-09T19:50:48.407Z,9.30
2023-04-09T19:53:17.008Z,7.00
2023-04-09T19:55:46.093Z,7.80
2023-04-09T19:58:15.978Z,7.80
2023-04-09T20:00:44.317Z,6.60
2023-04-09T20:03:13.885Z,8.00
2023-04-09T20:05:43.144Z,7.20
2023-04-09T20:08:14.356Z,6.10
2023-04-09T20:10:47.242Z,7.50
2023-04-09T20:13:17.882Z,8.10
2023-04-09T20:15:47.070Z,8.30
2023-04-09T20:20:50.827Z,8.60
2023-04-09T20:23:21.874Z,8.70
2023-04-09T20:25:56.889Z,8.80
2023-04-09T20:28:26.606Z,9.20
2023-04-09T20:30:57.902Z,9.20
2023-04-09T20:33:26.162Z,7.10
2023-04-09T20:35:57.539Z,8.60
2023-04-09T20:38:26.238Z,9.40
2023-04-09T20:40:54.667Z,7.10
2023-04-09T20:43:23.391Z,7.80
2023-04-09T20:45:59.960Z,8.90
2023-04-09T20:48:34.499Z,10.80
2023-04-09T20:51:08.291Z,9.70
2023-04-09T20:56:06.613Z,8.70
2023-04-09T20:58:44.465Z,9.60
2023-04-09T21:01:16.128Z,9.20
2023-04-09T21:03:44.965Z,10.10
2023-04-09T21:06:19.531Z,8.80
2023-04-09T21:08:48.262Z,8.70
2023-04-09T21:11:16.499Z,8.70
2023-04-09T21:13:54.910Z,7.80
2023-04-09T21:16:26.052Z,9.60
2023-04-09T21:18:54.807Z,8.50
2023-04-09T21:21:31.153Z,8.90
2023-04-09T21:24:01.269Z,7.50
2023-04-09T21:26:38.434Z,8.10
2023-04-09T21:29:17.574Z,8.70
2023-04-09T21:31:46.453Z,8.60
2023-04-09T21:34:15.138Z,8.20
2023-04-09T21:36:45.473Z,7.80
2023-04-09T21:39:13.784Z,7.50
2023-04-09T21:41:42.607Z,7.30
2023-04-09T21:44:10.605Z,7.90
2023-04-09T21:46:40.833Z,8.90
2023-04-09T21:49:10.458Z,10.90
2023-04-09T21:51:39.376Z,10.70
2023-04-09T21:54:09.976Z,7.80
2023-04-09T21:56:39.439Z,8.50
2023-04-09T21:59:10.691Z,9.70
2023-04-09T22:01:41.293Z,9.00
2023-04-09T22:04:09.720Z,7.60
2023-04-09T22:06:40.174Z,7.50
2023-04-09T22:09:08.684Z,7.20
2023-04-09T22:11:41.222Z,7.20
2023-04-09T22:14:12.105Z,7.30
2023-04-09T22:16:41.284Z,8.10
2023-04-09T22:19:09.408Z,7.40
2023-04-09T22:21:42.392Z,8.00
2023-04-09T22:24:10.812Z,8.70
2023-04-09T22:26:44.109Z,8.20
2023-04-09T22:29:16.164Z,9.00
2023-04-09T22:31:45.943Z,8.20
2023-04-09T22:34:20.936Z,8.90
2023-04-09T22:36:50.182Z,9.50
2023-04-09T22:39:19.627Z,10.10
2023-04-09T22:41:47.725Z,10.90
2023-04-09T22:44:16.112Z,9.80
2023-04-09T22:46:46.288Z,11.60
2023-04-09T22:49:18.035Z,10.70
2023-04-09T22:51:48.496Z,9.90
2023-04-09T22:54:16.694Z,9.30
2023-04-09T22:56:45.605Z,10.20
2023-04-09T22:59:13.989Z,10.90
2023-04-09T23:01:43.323Z,11.10
2023-04-09T23:04:12.187Z,10.90
2023-04-09T23:06:41.686Z,9.60
2023-04-09T23:09:11.292Z,10.00
2023-04-09T23:11:47.734Z,10.80
2023-04-09T23:14:17.078Z,9.60
2023-04-09T23:16:45.139Z,11.20
2023-04-09T23:19:13.618Z,11.00
2023-04-09T23:21:41.760Z,12.40
2023-04-09T23:24:09.850Z,10.40
2023-04-09T23:26:38.073Z,9.90
2023-04-09T23:29:06.280Z,10.70
2023-04-09T23:31:38.811Z,11.60
2023-04-09T23:34:07.724Z,10.20
2023-04-09T23:36:36.008Z,12.20
2023-04-09T23:39:04.347Z,10.70
2023-04-09T23:41:32.727Z,11.70
2023-04-09T23:44:01.154Z,12.20
2023-04-09T23:46:29.691Z,12.20
2023-04-09T23:48:57.832Z,10.40
2023-04-09T23:51:26.180Z,10.40
2023-04-09T23:53:55.765Z,11.90
2023-04-09T23:56:25.148Z,11.10
2023-04-09T23:58:53.613Z,12.30
